DW0217 Weather Reports


Display with metric or nautical units.
time (UTC)temp
F
wind
direction
speed
MPH
gust
MPH
rain 1hr
in
rain 24hr
in
rain mn
in
humidity
%
barometer
mb
20210621221508 77 226 11.0 0.0 0.00 0.00 0.00 28 1009.0
20210621220005 77 240 7.0 0.0 0.00 0.00 0.00 30 1009.3
20210621214502 76 217 9.0 0.0 0.00 0.00 0.00 30 1009.5
20210621213143 77 239 10.0 0.0 0.00 0.00 0.00 30 1009.8
20210621211650 76 232 5.0 0.0 0.00 0.00 0.00 29 1009.9
20210621210208 76 235 10.0 0.0 0.00 0.00 0.00 31 1010.0
20210621204626 76 286 10.0 0.0 0.00 0.00 0.00 32 1010.3
20210621203130 75 287 11.0 0.0 0.00 0.00 0.00 31 1010.4
20210621201803 75 193 5.0 0.0 0.00 0.00 0.00 32 1010.7
20210621200153 74 219 8.0 0.0 0.00 0.00 0.00 35 1010.9
20210621194612 74 219 10.0 0.0 0.00 0.00 0.00 37 1011.2
20210621193056 73 280 9.0 0.0 0.00 0.00 0.00 36 1011.4
20210621191633 73 203 11.0 0.0 0.00 0.00 0.00 34 1011.8
20210621190056 72 248 6.0 0.0 0.00 0.00 0.00 35 1012.3
20210621184619 72 249 11.0 0.0 0.00 0.00 0.00 38 1012.6
20210621183047 72 217 9.0 0.0 0.00 0.00 0.00 38 1012.8
20210621181551 71 257 11.0 0.0 0.00 0.00 0.00 37 1013.1
20210621180106 71 238 10.0 0.0 0.00 0.00 0.00 42 1013.3
20210621174545 69 227 8.0 0.0 0.00 0.00 0.00 42 1013.4
20210621173111 68 275 8.0 0.0 0.00 0.00 0.00 47 1013.7
20210621171518 68 248 6.0 0.0 0.00 0.00 0.00 48 1014.1
20210621170018 66 285 7.0 0.0 0.00 0.00 0.00 53 1014.2
20210621164533 65 213 5.0 0.0 0.00 0.00 0.00 53 1014.5
20210621163024 63 191 6.0 0.0 0.00 0.00 0.00 56 1014.7
20210621161503 62 219 6.0 0.0 0.00 0.00 0.00 57 1014.9
20210621160126 60 199 5.0 0.0 0.00 0.00 0.00 57 1015.3
20210621154709 59 213 3.0 0.0 0.00 0.00 0.00 56 1015.6
20210621153116 58 204 7.0 0.0 0.00 0.00 0.00 56 1015.8
20210621151627 57 190 5.0 0.0 0.00 0.00 0.00 55 1016.0
20210621150141 56 164 5.0 0.0 0.00 0.00 0.00 52 1016.2
20210621144740 55 186 5.0 0.0 0.00 0.00 0.00 54 1016.3
20210621143107 54 134 6.0 0.0 0.00 0.00 0.00 51 1016.6
20210621141550 53 143 7.0 0.0 0.00 0.00 0.00 51 1016.7
20210621140050 53 157 7.0 0.0 0.00 0.00 0.00 52 1016.9
20210621134548 51 150 6.0 0.0 0.00 0.00 0.00 54 1017.0
20210621133042 50 116 6.0 0.0 0.00 0.00 0.00 55 1017.1
20210621131537 49 101 5.0 0.0 0.00 0.00 0.00 58 1017.2
20210621130103 46 110 1.0 0.0 0.00 0.00 0.00 67 1017.3
20210621124530 42 293 0.0 0.0 0.00 0.00 0.00 75 1017.4
20210621123017 39 292 0.0 0.0 0.00 0.00 0.00 79 1017.4
20210621121558 37 292 0.0 0.0 0.00 0.00 0.00 82 1017.4
20210621120038 36 292 0.0 0.0 0.00 0.00 0.00 82 1017.5
20210621114514 36 292 1.0 0.0 0.00 0.00 0.00 82 1017.5
20210621113015 36 17 0.0 0.0 0.00 0.00 0.00 83 1017.5
20210621111530 35 17 0.0 0.0 0.00 0.00 0.00 84 1017.4
20210621110016 34 16 1.0 0.0 0.00 0.00 0.00 83 1017.3
20210621104511 36 16 1.0 0.0 0.00 0.00 0.00 83 1017.4
20210621103011 36 342 0.0 0.0 0.00 0.00 0.00 82 1017.3
20210621101518 35 342 1.0 0.0 0.00 0.00 0.00 82 1017.3
20210621100010 35 342 0.0 0.0 0.00 0.00 0.00 83 1017.2
20210621093003 37 332 2.0 0.0 0.00 0.00 0.00 80 1017.5
20210621091655 37 343 3.0 0.0 0.00 0.00 0.00 79 1017.5
20210621090156 38 11 3.0 0.0 0.00 0.00 0.00 77 1017.3
20210621084605 39 5 2.0 0.0 0.00 0.00 0.00 78 1017.6
20210621083149 39 59 0.0 0.0 0.00 0.00 0.00 81 1017.6
20210621081602 40 59 0.0 0.0 0.00 0.00 0.00 80 1017.6
20210621080148 40 59 0.0 0.0 0.00 0.00 0.00 76 1017.6
20210621074613 41 59 0.0 0.0 0.00 0.00 0.00 75 1017.6
20210621073111 42 59 0.0 0.0 0.00 0.00 0.00 74 1017.8
20210621071542 43 59 0.0 0.0 0.00 0.00 0.00 73 1017.7
20210621070042 44 59 0.0 0.0 0.00 0.00 0.00 70 1017.7
20210621064612 46 59 1.0 0.0 0.00 0.00 0.00 69 1017.6
20210621063121 45 59 0.0 0.0 0.00 0.00 0.00 69 1017.5
20210621061534 46 59 0.0 0.0 0.00 0.00 0.00 68 1017.5
20210621060126 47 59 0.0 0.0 0.00 0.00 0.00 68 1017.4
20210621054524 47 59 0.0 0.0 0.00 0.00 0.00 67 1017.3
20210621053049 49 59 1.0 0.0 0.00 0.00 0.00 65 1017.4
20210621051535 49 59 0.0 0.0 0.00 0.00 0.00 64 1017.4
20210621050030 48 59 1.0 0.0 0.00 0.00 0.00 64 1017.4
20210621044556 49 59 0.0 0.0 0.00 0.00 0.00 62 1017.3
20210621043037 50 59 4.0 0.0 0.00 0.00 0.00 60 1017.2
20210621041622 52 50 7.0 0.0 0.00 0.00 0.00 58 1017.1
20210621040025 53 44 6.0 0.0 0.00 0.00 0.00 56 1016.9
20210621034542 56 55 7.0 0.0 0.00 0.00 0.00 53 1016.8
20210621033014 57 51 7.0 0.0 0.00 0.00 0.00 51 1016.7
20210621031548 59 36 6.0 0.0 0.00 0.00 0.00 49 1016.6
20210621030033 61 41 5.0 0.0 0.00 0.00 0.00 46 1016.4
20210621024512 63 46 4.0 0.0 0.00 0.00 0.00 43 1016.5
20210621023045 64 355 4.0 0.0 0.00 0.00 0.00 43 1016.5
20210621021514 66 9 5.0 0.0 0.00 0.00 0.00 40 1016.4
20210621020017 66 338 7.0 0.0 0.00 0.00 0.00 41 1016.4
20210621014511 65 324 8.0 0.0 0.00 0.00 0.00 41 1016.4
20210621013009 67 337 9.0 0.0 0.00 0.00 0.00 38 1016.3
20210621011558 67 34 9.0 0.0 0.00 0.00 0.00 39 1016.3
20210621010010 68 326 10.0 0.0 0.00 0.00 0.00 37 1016.3
20210621004535 68 338 7.0 0.0 0.00 0.00 0.00 38 1016.3
20210621003006 68 338 9.0 0.0 0.00 0.00 0.00 36 1016.3
20210621001505 69 12 9.0 0.0 0.00 0.00 0.00 36 1016.3
20210621000009 69 18 10.0 0.0 0.00 0.00 0.00 35 1016.2
20210620234508 69 327 9.0 0.0 0.00 0.00 0.00 34 1016.0
20210620233005 69 11 11.0 0.0 0.00 0.00 0.00 33 1016.1
20210620231502 70 338 9.0 0.0 0.00 0.00 0.00 33 1015.9
20210620230005 69 53 10.0 0.0 0.00 0.00 0.00 34 1016.1
20210620224655 68 50 9.0 0.0 0.00 0.00 0.00 33 1016.1
20210620223212 69 331 11.0 0.0 0.00 0.00 0.00 32 1016.1